Terminal Aerodrome Forecast
Issued by NWS St Louis, MO

Home | Current Version | Previous Version | Text Only | Print | Product List | Glossary On
Versions: 1 2 3 4 5 6 7 8 9 10 11 12 13 14 15 16 17 18 19 20 21
931
FTUS43 KLSX 071729
TAFSTL
TAF
KSTL 071729Z 0718/0824 26014G24KT P6SM BKN200
     FM072300 28014KT P6SM BKN120
     FM080900 29015KT P6SM BKN025 OVC050
     FM081200 29016G26KT P6SM -SHSN BKN025 OVC040=

USA.gov is the U.S. government's official web portal to all federal, state and local government web resources and services.